createdAt,value
2019-03-29T00:00:48.497Z,8.90
2019-03-29T00:03:18.467Z,8.90
2019-03-29T00:05:47.835Z,8.90
2019-03-29T00:08:17.274Z,8.90
2019-03-29T00:10:47.055Z,8.90
2019-03-29T00:13:16.891Z,8.90
2019-03-29T00:15:46.439Z,8.90
2019-03-29T00:18:16.003Z,8.90
2019-03-29T00:20:45.230Z,8.90
2019-03-29T00:23:14.712Z,8.90
2019-03-29T00:25:43.971Z,8.80
2019-03-29T00:28:13.289Z,8.90
2019-03-29T00:30:42.685Z,8.90
2019-03-29T00:33:12.682Z,8.90
2019-03-29T00:35:41.981Z,8.80
2019-03-29T00:38:12.523Z,8.80
2019-03-29T00:40:41.832Z,8.80
2019-03-29T00:43:11.244Z,8.80
2019-03-29T00:45:40.649Z,8.80
2019-03-29T00:48:09.945Z,8.80
2019-03-29T00:50:39.319Z,8.80
2019-03-29T00:53:09.138Z,8.80
2019-03-29T00:55:38.696Z,8.80
2019-03-29T00:58:08.199Z,8.80
2019-03-29T01:00:37.506Z,8.70
2019-03-29T01:03:06.884Z,8.70
2019-03-29T01:05:36.158Z,8.70
2019-03-29T01:08:08.342Z,8.70
2019-03-29T01:10:36.801Z,8.70
2019-03-29T01:13:06.195Z,8.70
2019-03-29T01:15:35.956Z,8.70
2019-03-29T01:18:05.602Z,8.70
2019-03-29T01:20:35.516Z,8.60
2019-03-29T01:23:04.846Z,8.60
2019-03-29T01:25:35.231Z,8.60
2019-03-29T01:28:04.820Z,8.60
2019-03-29T01:30:34.950Z,8.60
2019-03-29T01:33:04.331Z,8.60
2019-03-29T01:35:33.868Z,8.60
2019-03-29T01:38:03.248Z,8.60
2019-03-29T01:40:32.676Z,8.60
2019-03-29T01:43:02.155Z,8.60
2019-03-29T01:45:31.484Z,8.60
2019-03-29T01:48:00.859Z,8.50
2019-03-29T01:50:30.583Z,8.60
2019-03-29T01:53:00.026Z,8.60
2019-03-29T01:55:29.669Z,8.60
2019-03-29T01:57:59.325Z,8.50
2019-03-29T02:00:33.154Z,8.60
2019-03-29T02:03:03.306Z,8.50
2019-03-29T02:05:32.703Z,8.50
2019-03-29T02:08:02.068Z,8.50
2019-03-29T02:10:31.425Z,8.40
2019-03-29T02:13:00.838Z,8.40
2019-03-29T02:15:30.526Z,8.50
2019-03-29T02:17:59.983Z,8.40
2019-03-29T02:20:29.389Z,8.40
2019-03-29T02:22:58.765Z,8.50
2019-03-29T02:25:28.154Z,8.40
2019-03-29T02:27:57.450Z,8.40
2019-03-29T02:30:26.979Z,8.40
2019-03-29T02:32:56.621Z,8.40
2019-03-29T02:35:26.983Z,8.40
2019-03-29T02:37:56.651Z,8.50
2019-03-29T02:40:26.443Z,8.40
2019-03-29T02:42:55.793Z,8.50
2019-03-29T02:45:25.257Z,8.40
2019-03-29T02:47:54.631Z,8.50
2019-03-29T02:50:24.360Z,8.40
2019-03-29T02:52:53.716Z,8.40
2019-03-29T02:55:23.171Z,8.40
2019-03-29T02:57:52.535Z,8.40
2019-03-29T03:00:22.656Z,8.40
2019-03-29T03:02:51.957Z,8.30
2019-03-29T03:05:21.300Z,8.30
2019-03-29T03:07:50.668Z,8.40
2019-03-29T03:10:20.516Z,8.40
2019-03-29T03:12:50.238Z,8.30
2019-03-29T03:15:19.976Z,8.30
2019-03-29T03:17:49.536Z,8.30
2019-03-29T03:20:19.431Z,8.20
2019-03-29T03:22:48.852Z,8.20
2019-03-29T03:25:18.121Z,8.20
2019-03-29T03:27:47.439Z,8.20
2019-03-29T03:30:18.383Z,8.20
2019-03-29T03:32:47.982Z,8.20
2019-03-29T03:35:17.453Z,8.20
2019-03-29T03:37:46.916Z,8.40
2019-03-29T03:40:17.195Z,8.70
2019-03-29T03:42:47.015Z,8.70
2019-03-29T03:45:35.275Z,8.60
2019-03-29T03:48:04.825Z,8.50
2019-03-29T03:50:41.908Z,8.40
2019-03-29T03:53:12.228Z,8.40
2019-03-29T03:55:42.422Z,8.40
2019-03-29T03:58:12.655Z,8.40
2019-03-29T04:00:59.857Z,8.40
2019-03-29T04:03:29.700Z,8.40
2019-03-29T04:05:59.257Z,8.40
2019-03-29T04:08:28.870Z,8.40
2019-03-29T04:10:58.753Z,8.30
2019-03-29T04:13:28.224Z,8.30
2019-03-29T04:15:57.745Z,8.30
2019-03-29T04:18:27.295Z,8.30
2019-03-29T04:20:56.911Z,8.30
2019-03-29T04:23:26.622Z,8.40
2019-03-29T04:25:56.102Z,8.40
2019-03-29T04:28:25.572Z,8.40
2019-03-29T04:30:56.816Z,8.40
2019-03-29T04:33:26.226Z,8.40
2019-03-29T04:35:55.646Z,8.40
2019-03-29T04:38:25.273Z,8.50
2019-03-29T04:40:54.607Z,8.40
2019-03-29T04:43:24.120Z,8.40
2019-03-29T04:45:53.491Z,8.50
2019-03-29T04:48:22.840Z,8.50
2019-03-29T04:50:52.502Z,8.50
2019-03-29T04:53:22.006Z,8.50
2019-03-29T04:55:51.506Z,8.50
2019-03-29T04:58:20.860Z,8.50
2019-03-29T05:00:50.241Z,8.50
2019-03-29T05:03:19.606Z,8.50
2019-03-29T05:05:49.344Z,8.50
2019-03-29T05:08:18.852Z,8.50
2019-03-29T05:10:48.172Z,8.50
2019-03-29T05:13:18.016Z,8.50
2019-03-29T05:15:47.392Z,8.40
2019-03-29T05:18:16.878Z,8.50
2019-03-29T05:20:46.161Z,8.50
2019-03-29T05:23:15.474Z,8.50
2019-03-29T05:25:46.046Z,8.50
2019-03-29T05:28:15.407Z,8.60
2019-03-29T05:30:44.679Z,8.50
2019-03-29T05:33:14.047Z,8.50
2019-03-29T05:35:44.170Z,8.50
2019-03-29T05:38:13.535Z,8.50
2019-03-29T05:40:42.810Z,8.50
2019-03-29T05:43:12.243Z,8.60
2019-03-29T05:45:41.490Z,8.70
2019-03-29T05:48:10.884Z,8.70
2019-03-29T05:50:40.276Z,8.80
2019-03-29T05:53:09.611Z,8.70
2019-03-29T05:55:39.538Z,8.80
2019-03-29T05:58:08.959Z,8.80
2019-03-29T06:00:38.258Z,8.80
2019-03-29T06:03:10.031Z,8.90
2019-03-29T06:05:39.054Z,8.90
2019-03-29T06:08:09.311Z,8.80
2019-03-29T06:10:49.029Z,8.80
2019-03-29T06:13:09.727Z,8.80
2019-03-29T06:15:39.388Z,8.90
2019-03-29T06:18:09.481Z,8.90
2019-03-29T06:20:38.931Z,9.00
2019-03-29T06:23:08.687Z,9.00
2019-03-29T06:25:38.408Z,9.10
2019-03-29T06:28:07.943Z,9.00
2019-03-29T06:30:37.418Z,9.20
2019-03-29T06:33:07.164Z,9.20
2019-03-29T06:35:39.972Z,9.30
2019-03-29T06:38:09.905Z,9.40
2019-03-29T06:40:39.320Z,9.50
2019-03-29T06:43:08.619Z,9.60
2019-03-29T06:45:47.862Z,9.60
2019-03-29T06:48:09.485Z,9.60
2019-03-29T06:50:38.865Z,9.60
2019-03-29T06:53:08.280Z,9.60
2019-03-29T06:55:38.033Z,9.70
2019-03-29T06:58:07.348Z,9.80
2019-03-29T07:00:37.760Z,9.80
2019-03-29T07:03:07.195Z,9.80
2019-03-29T07:05:36.612Z,9.80
2019-03-29T07:08:05.954Z,9.90
2019-03-29T07:10:35.507Z,10.00
2019-03-29T07:13:05.197Z,10.10
2019-03-29T07:15:34.602Z,10.20
2019-03-29T07:18:04.330Z,10.20
2019-03-29T07:20:33.943Z,10.20
2019-03-29T07:23:03.211Z,10.20
2019-03-29T07:25:32.821Z,10.40
2019-03-29T07:28:02.132Z,10.50
2019-03-29T07:30:31.635Z,10.60
2019-03-29T07:33:01.230Z,10.50
2019-03-29T07:35:30.683Z,10.70
2019-03-29T07:38:00.340Z,10.60
2019-03-29T07:40:30.105Z,10.50
2019-03-29T07:42:59.562Z,10.70
2019-03-29T07:45:28.946Z,11.00
2019-03-29T07:47:58.300Z,11.30
2019-03-29T07:50:28.216Z,11.40
2019-03-29T07:52:57.489Z,11.60
2019-03-29T07:55:27.051Z,11.80
2019-03-29T07:57:56.748Z,11.80
2019-03-29T08:00:26.244Z,11.80
2019-03-29T08:02:55.783Z,11.70
2019-03-29T08:05:25.274Z,11.80
2019-03-29T08:07:54.717Z,11.80
2019-03-29T08:10:29.145Z,11.90
2019-03-29T08:12:57.015Z,11.70
2019-03-29T08:15:31.733Z,11.30
2019-03-29T08:18:08.309Z,11.30
2019-03-29T08:20:44.425Z,11.00
2019-03-29T08:23:23.410Z,11.00
2019-03-29T08:26:01.268Z,11.10
2019-03-29T08:28:38.759Z,11.20
2019-03-29T08:31:18.916Z,11.40
2019-03-29T08:33:53.947Z,11.60
2019-03-29T08:36:29.083Z,11.60
2019-03-29T08:39:05.173Z,11.90
2019-03-29T08:41:40.733Z,11.90
2019-03-29T08:44:16.920Z,12.00
2019-03-29T08:46:52.083Z,12.00
2019-03-29T08:49:26.375Z,11.90
2019-03-29T08:52:00.579Z,11.70
2019-03-29T08:54:33.025Z,11.60
2019-03-29T08:57:10.331Z,11.70
2019-03-29T08:59:42.582Z,11.70
2019-03-29T09:02:14.654Z,11.90
2019-03-29T09:04:51.339Z,11.80
2019-03-29T09:07:43.580Z,11.60
2019-03-29T09:10:07.296Z,11.50
2019-03-29T09:12:41.715Z,11.70
2019-03-29T09:15:16.272Z,11.60
2019-03-29T09:17:50.402Z,11.70
2019-03-29T09:20:25.678Z,11.90
2019-03-29T09:23:03.123Z,11.80
2019-03-29T09:25:40.628Z,11.70
2019-03-29T09:28:13.441Z,11.60
2019-03-29T09:30:48.932Z,11.70
2019-03-29T09:33:24.448Z,12.10
2019-03-29T09:36:00.540Z,12.30
2019-03-29T09:38:33.247Z,12.10
2019-03-29T09:41:09.318Z,12.10
2019-03-29T09:43:45.586Z,12.10
2019-03-29T09:46:18.427Z,12.10
2019-03-29T09:48:53.463Z,12.60
2019-03-29T09:51:31.955Z,12.40
2019-03-29T09:54:05.507Z,12.50
2019-03-29T09:56:43.573Z,12.90
2019-03-29T09:59:23.282Z,13.30
2019-03-29T10:02:00.308Z,13.40
2019-03-29T10:04:37.783Z,13.60
2019-03-29T10:07:15.868Z,13.10
2019-03-29T10:09:53.503Z,13.40
2019-03-29T10:12:42.279Z,13.30
2019-03-29T10:15:08.448Z,13.10
2019-03-29T10:17:50.344Z,13.40
2019-03-29T10:20:28.327Z,13.30
2019-03-29T10:23:03.793Z,13.10
2019-03-29T10:25:38.810Z,13.10
2019-03-29T10:28:13.901Z,12.70
2019-03-29T10:30:48.741Z,12.90
2019-03-29T10:33:19.076Z,13.10
2019-03-29T10:35:52.984Z,13.00
2019-03-29T10:38:19.547Z,13.00
2019-03-29T10:40:48.928Z,13.20
2019-03-29T10:43:18.546Z,13.10
2019-03-29T10:45:48.224Z,12.90
2019-03-29T10:48:17.651Z,13.00
2019-03-29T10:50:47.038Z,13.90
2019-03-29T11:13:13.344Z,14.90
2019-03-29T11:15:40.582Z,13.80
2019-03-29T11:18:10.232Z,13.50
2019-03-29T11:20:39.702Z,13.20
2019-03-29T11:23:09.147Z,13.20
2019-03-29T11:25:38.504Z,13.30
2019-03-29T11:28:08.263Z,13.30
2019-03-29T11:30:42.585Z,13.50
2019-03-29T11:33:09.178Z,13.80
2019-03-29T11:35:38.532Z,13.80
2019-03-29T11:38:08.121Z,13.90
2019-03-29T11:40:37.488Z,14.00
2019-03-29T11:43:07.099Z,14.00
2019-03-29T11:45:36.758Z,13.70
2019-03-29T11:48:09.040Z,14.00
2019-03-29T11:50:37.496Z,14.20
2019-03-29T11:53:06.963Z,13.90
2019-03-29T11:55:36.523Z,13.80
2019-03-29T11:58:08.035Z,14.10
2019-03-29T12:00:38.447Z,14.20
2019-03-29T12:03:09.482Z,14.30
2019-03-29T12:05:39.392Z,14.40
2019-03-29T12:08:09.045Z,14.70
2019-03-29T12:10:38.338Z,14.80
2019-03-29T12:13:09.023Z,14.90
2019-03-29T12:15:38.909Z,14.60
2019-03-29T12:18:08.939Z,15.40
2019-03-29T12:20:38.422Z,17.60
2019-03-29T12:38:00.636Z,19.50
2019-03-29T12:45:27.585Z,16.60
2019-03-29T12:47:56.928Z,18.20
2019-03-29T12:50:27.177Z,17.40
2019-03-29T12:52:56.519Z,16.80
2019-03-29T12:55:25.920Z,17.10
2019-03-29T12:57:55.247Z,16.90
2019-03-29T13:00:24.851Z,16.80
2019-03-29T13:02:55.023Z,17.70
2019-03-29T13:05:24.378Z,19.30
2019-03-29T13:07:53.809Z,19.40
2019-03-29T13:10:23.575Z,18.60
2019-03-29T13:12:52.876Z,18.80
2019-03-29T13:15:22.420Z,19.60
2019-03-29T13:17:52.340Z,19.30
2019-03-29T13:20:22.028Z,19.20
2019-03-29T13:22:51.528Z,18.60
2019-03-29T13:25:20.831Z,19.00
2019-03-29T13:27:50.484Z,18.50
2019-03-29T13:30:20.714Z,18.80
2019-03-29T13:32:50.130Z,19.00
2019-03-29T13:35:20.303Z,18.70
2019-03-29T13:37:49.866Z,18.80
2019-03-29T13:40:21.164Z,18.70
2019-03-29T13:42:50.788Z,18.20
2019-03-29T13:45:20.304Z,17.90
2019-03-29T13:47:49.767Z,18.30
2019-03-29T13:50:19.425Z,18.70
2019-03-29T13:52:48.808Z,19.60
2019-03-29T13:55:18.207Z,18.90
2019-03-29T13:57:47.567Z,19.10
2019-03-29T14:00:17.038Z,17.80
2019-03-29T14:02:46.479Z,17.50
2019-03-29T14:05:15.775Z,17.60
2019-03-29T14:07:45.220Z,17.60
2019-03-29T14:10:14.605Z,18.60
2019-03-29T14:12:44.232Z,17.80
2019-03-29T14:15:14.768Z,18.60
2019-03-29T14:17:44.246Z,17.90
2019-03-29T14:20:15.462Z,18.90
2019-03-29T14:22:45.858Z,18.30
2019-03-29T14:25:15.389Z,19.40
2019-03-29T14:27:44.894Z,18.90
2019-03-29T14:30:14.663Z,18.30
2019-03-29T14:32:44.177Z,19.00
2019-03-29T14:35:13.950Z,20.00
2019-03-29T14:37:43.601Z,19.60
2019-03-29T14:40:13.393Z,19.30
2019-03-29T14:42:42.920Z,18.80
2019-03-29T14:45:12.484Z,18.40
2019-03-29T14:47:43.840Z,18.10
2019-03-29T14:50:13.782Z,18.00
2019-03-29T14:52:43.454Z,19.30
2019-03-29T14:55:13.214Z,19.50
2019-03-29T14:57:42.753Z,19.10
2019-03-29T15:00:12.963Z,19.10
2019-03-29T15:02:42.614Z,18.40
2019-03-29T15:05:12.076Z,19.00
2019-03-29T15:07:42.761Z,19.30
2019-03-29T15:10:25.439Z,19.20
2019-03-29T15:12:55.411Z,19.60
2019-03-29T15:15:25.011Z,19.40
2019-03-29T15:17:54.593Z,18.70
2019-03-29T15:20:24.220Z,19.40
2019-03-29T15:22:53.641Z,18.80
2019-03-29T15:25:23.229Z,18.60
2019-03-29T15:27:52.877Z,19.00
2019-03-29T15:30:22.289Z,19.00
2019-03-29T15:32:51.634Z,18.40
2019-03-29T15:35:21.337Z,18.90
2019-03-29T15:37:50.678Z,19.10
2019-03-29T15:40:20.122Z,19.10
2019-03-29T15:42:49.593Z,19.00
2019-03-29T15:45:20.843Z,18.50
2019-03-29T15:47:50.273Z,18.10
2019-03-29T15:50:19.772Z,17.80
2019-03-29T15:52:49.357Z,18.00
2019-03-29T15:55:18.703Z,17.60
2019-03-29T15:57:48.023Z,17.00
2019-03-29T16:00:18.460Z,17.40
2019-03-29T16:02:47.970Z,17.00
2019-03-29T16:05:17.911Z,17.40
2019-03-29T16:07:47.306Z,17.80
2019-03-29T16:10:16.758Z,18.00
2019-03-29T16:12:46.107Z,18.10
2019-03-29T16:15:15.435Z,18.00
2019-03-29T16:17:44.799Z,17.80
2019-03-29T16:20:14.259Z,17.80
2019-03-29T16:22:44.420Z,17.50
2019-03-29T16:25:14.263Z,16.80
2019-03-29T16:27:43.834Z,16.50
2019-03-29T16:30:13.491Z,15.80
2019-03-29T16:32:42.836Z,15.60
2019-03-29T16:35:12.489Z,15.90
2019-03-29T16:37:51.434Z,16.00
2019-03-29T16:40:14.044Z,15.90
2019-03-29T16:42:43.456Z,15.90
2019-03-29T16:45:13.570Z,16.00
2019-03-29T16:47:43.636Z,15.90
2019-03-29T16:50:13.219Z,15.70
2019-03-29T16:52:42.613Z,15.80
2019-03-29T16:55:13.953Z,15.70
2019-03-29T16:57:43.495Z,15.40
2019-03-29T17:00:13.187Z,15.20
2019-03-29T17:02:42.912Z,15.20
2019-03-29T17:05:12.724Z,14.90
2019-03-29T17:07:42.744Z,14.70
2019-03-29T17:10:12.697Z,14.80
2019-03-29T17:12:42.539Z,14.60
2019-03-29T17:15:12.144Z,14.60
2019-03-29T17:17:41.451Z,14.40
2019-03-29T17:20:10.979Z,14.10
2019-03-29T17:22:43.030Z,13.80
2019-03-29T17:25:11.672Z,13.50
2019-03-29T17:27:42.222Z,13.30
2019-03-29T17:30:13.988Z,13.20
2019-03-29T17:32:43.272Z,13.10
2019-03-29T17:35:12.758Z,13.10
2019-03-29T17:37:42.326Z,12.90
2019-03-29T17:40:12.095Z,12.70
2019-03-29T17:42:41.536Z,12.60
2019-03-29T17:45:11.219Z,12.50
2019-03-29T17:47:40.975Z,12.50
2019-03-29T17:50:10.839Z,12.40
2019-03-29T17:52:40.366Z,12.40
2019-03-29T17:55:10.049Z,12.30
2019-03-29T17:57:40.203Z,12.20
2019-03-29T18:00:17.483Z,12.20
2019-03-29T18:02:47.310Z,12.00
2019-03-29T18:05:16.655Z,11.90
2019-03-29T18:07:45.967Z,11.70
2019-03-29T18:10:15.680Z,11.60
2019-03-29T18:12:45.167Z,11.50
2019-03-29T18:15:15.353Z,11.40
2019-03-29T18:17:44.752Z,11.50
2019-03-29T18:20:15.812Z,11.50
2019-03-29T18:22:45.523Z,11.50
2019-03-29T18:25:15.040Z,11.50
2019-03-29T18:27:44.548Z,11.50
2019-03-29T18:30:14.626Z,11.50
2019-03-29T18:32:44.220Z,11.30
2019-03-29T18:35:13.601Z,11.30
2019-03-29T18:37:43.135Z,11.40
2019-03-29T18:40:25.386Z,11.30
2019-03-29T18:42:55.043Z,11.10
2019-03-29T18:45:24.544Z,11.00
2019-03-29T18:47:54.015Z,10.80
2019-03-29T18:50:23.956Z,10.70
2019-03-29T18:52:53.226Z,10.70
2019-03-29T18:55:22.891Z,10.60
2019-03-29T18:57:52.408Z,10.70
2019-03-29T19:00:30.690Z,10.70
2019-03-29T19:03:00.333Z,10.70
2019-03-29T19:05:30.164Z,10.70
2019-03-29T19:07:59.803Z,10.50
2019-03-29T19:10:29.339Z,10.50
2019-03-29T19:12:58.799Z,10.40
2019-03-29T19:15:28.201Z,10.40
2019-03-29T19:17:57.908Z,10.30
2019-03-29T19:20:28.431Z,10.20
2019-03-29T19:22:57.935Z,10.20
2019-03-29T19:25:27.564Z,10.10
2019-03-29T19:27:56.967Z,10.00
2019-03-29T19:30:26.786Z,9.90
2019-03-29T19:32:56.455Z,9.80
2019-03-29T19:35:25.906Z,9.90
2019-03-29T19:37:55.335Z,9.80
2019-03-29T19:40:25.301Z,9.70
2019-03-29T19:42:55.154Z,9.70
2019-03-29T19:45:25.143Z,9.50
2019-03-29T19:47:54.484Z,9.60
2019-03-29T19:50:23.983Z,9.50
2019-03-29T19:52:53.342Z,9.40
2019-03-29T19:55:23.179Z,9.40
2019-03-29T19:57:52.474Z,9.40
2019-03-29T20:00:28.616Z,9.30
2019-03-29T20:02:57.922Z,9.30
2019-03-29T20:05:28.831Z,9.20
2019-03-29T20:07:58.411Z,9.30
2019-03-29T20:10:27.892Z,9.20
2019-03-29T20:12:57.648Z,9.20
2019-03-29T20:15:27.289Z,9.00
2019-03-29T20:17:56.694Z,8.80
2019-03-29T20:20:26.953Z,8.60
2019-03-29T20:22:57.631Z,8.50
2019-03-29T20:25:27.340Z,8.40
2019-03-29T20:27:58.514Z,8.50
2019-03-29T20:30:28.648Z,8.40
2019-03-29T20:32:58.063Z,8.20
2019-03-29T20:35:27.494Z,8.00
2019-03-29T20:37:56.914Z,7.90
2019-03-29T20:40:26.355Z,8.10
2019-03-29T20:42:55.712Z,8.20
2019-03-29T20:45:25.808Z,8.40
2019-03-29T20:47:55.156Z,8.30
2019-03-29T20:50:24.793Z,8.00
2019-03-29T20:52:54.219Z,8.10
2019-03-29T20:55:23.749Z,8.30
2019-03-29T20:57:56.700Z,8.20
2019-03-29T21:00:26.128Z,8.00
2019-03-29T21:02:55.460Z,8.20
2019-03-29T21:05:24.912Z,8.40
2019-03-29T21:07:55.115Z,8.50
2019-03-29T21:10:24.928Z,8.40
2019-03-29T21:12:54.438Z,8.40
2019-03-29T21:15:24.014Z,8.40
2019-03-29T21:17:57.538Z,8.30
2019-03-29T21:20:24.511Z,8.00
2019-03-29T21:22:54.063Z,7.90
2019-03-29T21:25:23.510Z,7.80
2019-03-29T21:27:53.137Z,7.80
2019-03-29T21:30:22.549Z,7.80
2019-03-29T21:32:52.104Z,7.80
2019-03-29T21:35:21.808Z,7.60
2019-03-29T21:48:04.870Z,7.30
2019-03-29T21:50:29.608Z,6.90
2019-03-29T21:52:59.030Z,6.90
2019-03-29T21:55:28.357Z,6.90
2019-03-29T21:57:58.029Z,7.00
2019-03-29T22:00:27.376Z,7.10
2019-03-29T22:02:56.841Z,7.20
2019-03-29T22:05:26.295Z,7.10
2019-03-29T22:07:55.685Z,7.10
2019-03-29T22:10:25.098Z,6.80
2019-03-29T22:12:54.488Z,6.90
2019-03-29T22:15:23.750Z,6.90
2019-03-29T22:17:53.103Z,6.80
2019-03-29T22:20:24.435Z,6.80
2019-03-29T22:22:53.943Z,6.80
2019-03-29T22:25:23.280Z,6.80
2019-03-29T22:27:53.357Z,6.90
2019-03-29T22:30:23.014Z,6.80
2019-03-29T22:32:52.559Z,6.70
2019-03-29T22:35:22.077Z,6.60
2019-03-29T22:37:51.837Z,6.60
2019-03-29T22:40:21.255Z,6.50
2019-03-29T22:42:50.737Z,6.30
2019-03-29T22:45:20.118Z,6.10
2019-03-29T22:47:49.541Z,6.00
2019-03-29T22:50:18.939Z,5.90
2019-03-29T22:52:48.664Z,5.90
2019-03-29T22:55:18.116Z,6.00
2019-03-29T22:57:47.670Z,5.90
2019-03-29T23:00:24.019Z,5.80
2019-03-29T23:02:53.442Z,5.70
2019-03-29T23:05:23.338Z,5.80
2019-03-29T23:07:53.235Z,5.80
2019-03-29T23:10:22.527Z,5.80
2019-03-29T23:12:51.819Z,5.80
2019-03-29T23:15:21.182Z,5.90
2019-03-29T23:17:50.526Z,5.90
2019-03-29T23:20:19.810Z,6.00
2019-03-29T23:22:49.147Z,5.90
2019-03-29T23:25:18.477Z,5.80
2019-03-29T23:27:48.197Z,5.70
2019-03-29T23:30:18.268Z,5.70
2019-03-29T23:32:47.683Z,5.60
2019-03-29T23:35:17.034Z,5.50
2019-03-29T23:37:46.391Z,5.40
2019-03-29T23:40:15.957Z,5.40
2019-03-29T23:42:45.366Z,5.40
2019-03-29T23:45:15.033Z,5.30
2019-03-29T23:47:44.510Z,5.50
2019-03-29T23:50:13.888Z,5.40
2019-03-29T23:52:43.291Z,5.40
2019-03-29T23:55:12.717Z,5.40
2019-03-29T23:57:41.981Z,5.30
